createdAt,value
2019-04-25T00:02:33.307Z,10.10
2019-04-25T00:05:04.689Z,10.10
2019-04-25T00:07:35.110Z,10.10
2019-04-25T00:10:06.239Z,10.20
2019-04-25T00:12:37.855Z,10.30
2019-04-25T00:15:08.485Z,10.30
2019-04-25T00:17:40.114Z,10.20
2019-04-25T00:20:11.411Z,10.10
2019-04-25T00:22:47.939Z,10.10
2019-04-25T00:25:45.905Z,10.00
2019-04-25T00:28:15.695Z,9.90
2019-04-25T00:30:46.089Z,9.80
2019-04-25T00:33:16.465Z,9.60
2019-04-25T00:35:47.403Z,9.50
2019-04-25T00:38:17.711Z,9.40
2019-04-25T00:40:48.062Z,9.30
2019-04-25T00:43:18.384Z,9.20
2019-04-25T00:45:48.601Z,9.20
2019-04-25T00:48:18.985Z,9.20
2019-04-25T00:50:49.892Z,9.20
2019-04-25T00:53:21.221Z,9.10
2019-04-25T00:55:52.516Z,9.10
2019-04-25T00:58:52.833Z,9.10
2019-04-25T01:01:41.368Z,9.00
2019-04-25T01:04:13.333Z,9.00
2019-04-25T01:06:44.026Z,9.10
2019-04-25T01:09:17.018Z,9.10
2019-04-25T01:11:47.925Z,9.10
2019-04-25T01:14:18.258Z,9.10
2019-04-25T01:16:48.647Z,9.10
2019-04-25T01:19:18.786Z,9.00
2019-04-25T01:21:49.127Z,9.10
2019-04-25T01:24:19.621Z,9.10
2019-04-25T01:26:51.643Z,9.10
2019-04-25T01:29:23.394Z,9.20
2019-04-25T01:31:54.373Z,9.30
2019-04-25T01:34:39.763Z,9.30
2019-04-25T01:37:23.677Z,9.20
2019-04-25T01:40:19.630Z,9.20
2019-04-25T01:43:13.668Z,9.10
2019-04-25T01:45:43.930Z,9.00
2019-04-25T01:48:14.356Z,8.80
2019-04-25T01:50:44.680Z,8.90
2019-04-25T01:53:15.134Z,8.90
2019-04-25T01:55:53.738Z,8.90
2019-04-25T01:58:17.219Z,8.80
2019-04-25T02:00:48.664Z,8.70
2019-04-25T02:03:18.958Z,8.70
2019-04-25T02:05:49.165Z,8.80
2019-04-25T02:08:19.543Z,8.90
2019-04-25T02:10:57.016Z,8.90
2019-04-25T02:13:27.256Z,9.10
2019-04-25T02:15:57.489Z,9.20
2019-04-25T02:18:27.768Z,9.40
2019-04-25T02:21:00.223Z,9.40
2019-04-25T02:23:29.757Z,9.40
2019-04-25T02:26:12.656Z,9.40
2019-04-25T02:28:33.843Z,9.30
2019-04-25T02:31:08.531Z,9.20
2019-04-25T02:33:36.056Z,9.20
2019-04-25T02:36:08.671Z,9.00
2019-04-25T02:38:38.139Z,9.00
2019-04-25T02:41:09.115Z,8.90
2019-04-25T02:43:39.545Z,8.80
2019-04-25T02:46:31.847Z,8.80
2019-04-25T02:49:34.804Z,8.70
2019-04-25T02:52:03.423Z,8.70
2019-04-25T02:54:34.811Z,8.70
2019-04-25T02:57:07.770Z,8.60
2019-04-25T02:59:37.310Z,8.50
2019-04-25T03:02:09.226Z,8.50
2019-04-25T03:04:39.680Z,8.50
2019-04-25T03:07:11.319Z,8.50
2019-04-25T03:09:41.819Z,8.40
2019-04-25T03:12:26.936Z,8.40
2019-04-25T03:14:44.739Z,8.30
2019-04-25T03:17:15.056Z,8.30
2019-04-25T03:20:11.711Z,8.20
2019-04-25T03:22:44.249Z,8.20
2019-04-25T03:25:17.287Z,8.10
2019-04-25T03:27:45.682Z,8.00
2019-04-25T03:30:18.135Z,7.90
2019-04-25T03:32:51.510Z,7.80
2019-04-25T03:35:20.483Z,7.80
2019-04-25T03:37:50.753Z,7.80
2019-04-25T03:40:21.028Z,7.80
2019-04-25T03:42:51.286Z,7.80
2019-04-25T03:45:21.497Z,7.80
2019-04-25T03:47:53.030Z,7.80
2019-04-25T03:50:23.497Z,7.90
2019-04-25T03:52:54.060Z,7.80
2019-04-25T03:55:24.333Z,7.80
2019-04-25T03:57:54.637Z,7.80
2019-04-25T04:00:24.948Z,7.70
2019-04-25T04:02:55.447Z,7.80
2019-04-25T04:05:26.453Z,7.90
2019-04-25T04:08:05.246Z,7.90
2019-04-25T04:10:43.511Z,7.90
2019-04-25T04:13:24.336Z,7.80
2019-04-25T04:16:03.288Z,7.90
2019-04-25T04:18:49.133Z,8.00
2019-04-25T04:21:44.029Z,8.00
2019-04-25T04:24:26.847Z,8.00
2019-04-25T04:27:18.267Z,7.90
2019-04-25T04:29:48.494Z,7.90
2019-04-25T04:32:19.511Z,7.90
2019-04-25T04:34:49.849Z,8.00
2019-04-25T04:37:19.972Z,8.10
2019-04-25T04:39:50.233Z,8.10
2019-04-25T04:42:20.512Z,8.30
2019-04-25T04:44:50.705Z,8.40
2019-04-25T04:47:20.890Z,8.50
2019-04-25T04:49:51.155Z,8.50
2019-04-25T04:52:23.485Z,8.50
2019-04-25T04:55:04.417Z,8.50
2019-04-25T04:57:32.250Z,8.50
2019-04-25T04:59:57.002Z,8.50
2019-04-25T05:02:45.117Z,8.60
2019-04-25T05:05:24.665Z,8.80
2019-04-25T05:07:58.171Z,9.00
2019-04-25T05:10:28.392Z,9.20
2019-04-25T05:12:58.584Z,9.40
2019-04-25T05:15:29.125Z,9.60
2019-04-25T05:17:59.392Z,9.80
2019-04-25T05:20:29.596Z,9.90
2019-04-25T05:22:59.939Z,10.00
2019-04-25T05:25:30.250Z,10.10
2019-04-25T05:28:03.158Z,10.10
2019-04-25T05:30:46.415Z,10.10
2019-04-25T05:33:20.940Z,10.10
2019-04-25T05:35:49.901Z,10.10
2019-04-25T05:38:20.173Z,10.10
2019-04-25T05:41:01.239Z,10.10
2019-04-25T05:43:31.502Z,10.20
2019-04-25T05:46:03.272Z,10.20
2019-04-25T05:48:37.329Z,10.20
2019-04-25T05:51:08.180Z,10.30
2019-04-25T05:53:38.374Z,10.40
2019-04-25T05:56:36.665Z,10.50
2019-04-25T05:59:07.061Z,10.60
2019-04-25T06:01:39.170Z,10.70
2019-04-25T06:04:09.411Z,10.70
2019-04-25T06:06:39.501Z,10.80
2019-04-25T06:09:30.507Z,10.90
2019-04-25T06:12:20.086Z,11.00
2019-04-25T06:14:50.331Z,11.20
2019-04-25T06:17:26.346Z,11.30
2019-04-25T06:19:56.863Z,11.40
2019-04-25T06:22:45.947Z,11.60
2019-04-25T06:25:17.462Z,11.60
2019-04-25T06:27:56.518Z,11.70
2019-04-25T06:30:27.864Z,11.80
2019-04-25T06:32:58.183Z,12.00
2019-04-25T06:35:29.634Z,12.10
2019-04-25T06:37:59.931Z,12.30
2019-04-25T06:40:30.762Z,12.50
2019-04-25T06:43:01.121Z,12.80
2019-04-25T06:46:08.729Z,13.00
2019-04-25T06:48:46.221Z,13.30
2019-04-25T06:51:16.477Z,13.60
2019-04-25T06:53:46.650Z,13.80
2019-04-25T06:56:16.879Z,13.90
2019-04-25T06:58:47.213Z,14.10
2019-04-25T07:01:17.429Z,14.20
2019-04-25T07:03:47.651Z,14.30
2019-04-25T07:06:17.958Z,14.40
2019-04-25T07:08:48.081Z,14.40
2019-04-25T07:11:18.278Z,14.60
2019-04-25T07:13:48.635Z,14.70
2019-04-25T07:16:18.863Z,14.70
2019-04-25T07:18:49.066Z,14.70
2019-04-25T07:21:19.392Z,14.70
2019-04-25T07:23:49.773Z,14.80
2019-04-25T07:26:39.707Z,14.80
2019-04-25T07:29:28.672Z,14.90
2019-04-25T07:32:20.808Z,14.90
2019-04-25T07:34:51.076Z,14.90
2019-04-25T07:37:22.071Z,14.90
2019-04-25T07:39:52.288Z,14.90
2019-04-25T07:42:23.850Z,14.90
2019-04-25T07:44:55.215Z,14.90
2019-04-25T07:47:26.739Z,14.80
2019-04-25T07:49:57.558Z,14.80
2019-04-25T07:52:28.801Z,14.90
2019-04-25T07:54:59.434Z,14.90
2019-04-25T07:57:31.200Z,15.10
2019-04-25T08:00:03.461Z,15.20
2019-04-25T08:02:34.849Z,15.40
2019-04-25T08:05:11.025Z,15.50
2019-04-25T08:07:41.516Z,15.50
2019-04-25T08:10:13.998Z,15.50
2019-04-25T08:12:47.299Z,15.70
2019-04-25T08:15:33.846Z,15.90
2019-04-25T08:18:06.948Z,16.00
2019-04-25T08:20:37.142Z,16.10
2019-04-25T08:23:07.601Z,16.20
2019-04-25T08:25:39.387Z,16.30
2019-04-25T08:28:09.791Z,16.30
2019-04-25T08:30:40.474Z,16.40
2019-04-25T08:33:10.662Z,16.40
2019-04-25T08:35:40.938Z,16.50
2019-04-25T08:38:13.478Z,16.50
2019-04-25T08:40:44.196Z,16.60
2019-04-25T08:43:14.727Z,16.60
2019-04-25T08:45:44.949Z,16.50
2019-04-25T08:48:15.208Z,16.40
2019-04-25T08:51:10.469Z,16.30
2019-04-25T08:53:48.375Z,16.20
2019-04-25T08:56:24.380Z,16.20
2019-04-25T08:59:52.705Z,16.10
2019-04-25T09:02:47.203Z,16.20
2019-04-25T09:05:21.118Z,16.30
2019-04-25T09:07:51.356Z,16.40
2019-04-25T09:10:21.597Z,16.40
2019-04-25T09:12:53.595Z,16.50
2019-04-25T09:15:24.134Z,16.60
2019-04-25T09:17:54.893Z,16.60
2019-04-25T09:20:25.193Z,16.60
2019-04-25T09:22:55.522Z,16.80
2019-04-25T09:25:25.774Z,16.90
2019-04-25T09:27:55.953Z,17.10
2019-04-25T09:30:26.319Z,17.30
2019-04-25T09:32:56.502Z,17.40
2019-04-25T09:35:33.526Z,17.60
2019-04-25T09:38:04.416Z,17.70
2019-04-25T09:40:36.140Z,17.60
2019-04-25T09:43:06.509Z,17.60
2019-04-25T09:46:07.963Z,17.50
2019-04-25T09:48:59.994Z,17.60
2019-04-25T09:51:36.141Z,17.50
2019-04-25T09:54:25.992Z,17.40
2019-04-25T09:57:00.339Z,17.20
2019-04-25T09:59:30.565Z,17.10
2019-04-25T10:02:00.843Z,17.00
2019-04-25T10:04:31.223Z,16.90
2019-04-25T10:07:01.390Z,16.80
2019-04-25T10:09:31.595Z,16.80
2019-04-25T10:12:01.849Z,17.00
2019-04-25T10:15:18.394Z,17.20
2019-04-25T10:17:48.697Z,17.30
2019-04-25T10:20:19.653Z,17.30
2019-04-25T10:22:49.985Z,17.30
2019-04-25T10:25:20.296Z,17.30
2019-04-25T10:27:50.525Z,17.30
2019-04-25T10:30:23.723Z,17.40
2019-04-25T10:32:54.414Z,17.50
2019-04-25T10:35:24.459Z,17.60
2019-04-25T10:37:55.039Z,17.70
2019-04-25T10:40:25.468Z,17.70
2019-04-25T10:42:56.645Z,17.70
2019-04-25T10:45:27.342Z,17.70
2019-04-25T10:47:57.561Z,17.90
2019-04-25T10:50:27.718Z,18.10
2019-04-25T10:52:57.886Z,18.20
2019-04-25T10:55:28.140Z,18.20
2019-04-25T10:57:58.489Z,18.10
2019-04-25T11:00:40.807Z,18.10
2019-04-25T11:03:39.640Z,18.20
2019-04-25T11:06:23.949Z,18.20
2019-04-25T11:08:56.500Z,18.20
2019-04-25T11:11:26.265Z,18.10
2019-04-25T11:13:58.582Z,18.00
2019-04-25T11:16:28.725Z,18.00
2019-04-25T11:19:01.719Z,18.10
2019-04-25T11:21:33.298Z,18.10
2019-04-25T11:24:04.119Z,18.10
2019-04-25T11:26:34.601Z,17.90
2019-04-25T11:29:05.009Z,17.80
2019-04-25T11:31:48.973Z,17.70
2019-04-25T11:34:20.554Z,17.60
2019-04-25T11:36:50.882Z,17.40
2019-04-25T11:39:53.129Z,17.40
2019-04-25T11:42:24.358Z,17.30
2019-04-25T11:44:55.595Z,17.30
2019-04-25T11:47:25.845Z,17.30
2019-04-25T11:49:56.105Z,17.30
2019-04-25T11:52:28.115Z,17.30
2019-04-25T11:54:58.131Z,17.30
2019-04-25T11:57:28.161Z,17.30
2019-04-25T11:59:58.475Z,17.30
2019-04-25T12:02:29.333Z,17.30
2019-04-25T12:04:59.470Z,17.30
2019-04-25T12:07:29.821Z,17.30
2019-04-25T12:10:00.031Z,17.20
2019-04-25T12:12:30.324Z,17.20
2019-04-25T12:15:00.680Z,17.20
2019-04-25T12:17:30.878Z,17.20
2019-04-25T12:20:01.129Z,17.10
2019-04-25T12:22:31.551Z,17.10
2019-04-25T12:25:01.778Z,17.10
2019-04-25T12:27:31.944Z,17.10
2019-04-25T12:30:05.110Z,17.10
2019-04-25T12:32:35.248Z,17.20
2019-04-25T12:35:06.323Z,17.20
2019-04-25T12:37:36.525Z,17.20
2019-04-25T12:40:09.056Z,17.20
2019-04-25T12:42:39.225Z,17.20
2019-04-25T12:45:20.705Z,17.30
2019-04-25T12:47:54.750Z,17.30
2019-04-25T12:50:24.727Z,17.20
2019-04-25T12:52:56.021Z,17.20
2019-04-25T12:55:26.297Z,17.10
2019-04-25T12:57:56.629Z,17.10
2019-04-25T13:00:27.802Z,17.00
2019-04-25T13:02:58.741Z,16.90
2019-04-25T13:05:29.641Z,16.90
2019-04-25T13:08:00.863Z,16.90
2019-04-25T13:10:31.253Z,16.90
2019-04-25T13:13:03.968Z,16.80
2019-04-25T13:15:34.936Z,16.80
2019-04-25T13:18:05.254Z,16.70
2019-04-25T13:20:36.176Z,16.60
2019-04-25T13:23:08.873Z,16.60
2019-04-25T13:25:39.011Z,16.60
2019-04-25T13:28:24.709Z,16.60
2019-04-25T13:31:15.364Z,16.60
2019-04-25T13:33:59.527Z,16.60
2019-04-25T13:36:29.802Z,16.70
2019-04-25T13:39:00.650Z,16.70
2019-04-25T13:41:30.806Z,16.80
2019-04-25T13:44:01.133Z,16.90
2019-04-25T13:46:32.628Z,17.10
2019-04-25T13:49:04.533Z,17.20
2019-04-25T13:51:34.784Z,17.20
2019-04-25T13:54:05.053Z,17.30
2019-04-25T13:56:40.271Z,17.40
2019-04-25T13:59:07.972Z,17.60
2019-04-25T14:01:38.490Z,17.60
2019-04-25T14:04:09.007Z,17.60
2019-04-25T14:06:39.259Z,17.50
2019-04-25T14:09:13.577Z,17.50
2019-04-25T14:11:44.132Z,17.50
2019-04-25T14:14:14.394Z,17.40
2019-04-25T14:17:06.802Z,17.30
2019-04-25T14:20:00.232Z,17.30
2019-04-25T14:22:30.665Z,17.20
2019-04-25T14:25:00.923Z,17.40
2019-04-25T14:27:31.087Z,17.70
2019-04-25T14:30:03.751Z,18.00
2019-04-25T14:32:33.973Z,18.20
2019-04-25T14:35:05.535Z,18.30
2019-04-25T14:37:39.675Z,18.10
2019-04-25T14:40:09.122Z,18.00
2019-04-25T14:42:39.377Z,17.90
2019-04-25T14:45:10.913Z,17.90
2019-04-25T14:47:41.090Z,17.90
2019-04-25T14:50:12.326Z,17.80
2019-04-25T14:52:42.629Z,17.80
2019-04-25T14:55:44.185Z,17.70
2019-04-25T14:58:16.303Z,17.70
2019-04-25T15:00:48.799Z,17.60
2019-04-25T15:03:19.190Z,17.60
2019-04-25T15:05:49.344Z,17.60
2019-04-25T15:08:19.573Z,17.50
2019-04-25T15:10:49.743Z,17.50
2019-04-25T15:13:19.930Z,17.60
2019-04-25T15:15:50.241Z,17.60
2019-04-25T15:18:20.505Z,17.70
2019-04-25T15:20:50.711Z,17.70
2019-04-25T15:23:20.951Z,17.70
2019-04-25T15:25:51.181Z,17.70
2019-04-25T15:28:21.305Z,17.70
2019-04-25T15:30:51.529Z,17.70
2019-04-25T15:33:21.689Z,17.80
2019-04-25T15:35:57.861Z,17.90
2019-04-25T15:38:38.120Z,18.10
2019-04-25T15:41:14.791Z,18.30
2019-04-25T15:44:04.058Z,18.40
2019-04-25T15:46:36.378Z,18.60
2019-04-25T15:49:06.754Z,18.70
2019-04-25T15:51:37.770Z,18.70
2019-04-25T15:54:08.322Z,18.60
2019-04-25T15:56:38.436Z,18.60
2019-04-25T15:59:08.706Z,18.70
2019-04-25T16:01:39.092Z,18.80
2019-04-25T16:04:09.418Z,18.90
2019-04-25T16:06:39.738Z,18.90
2019-04-25T16:09:10.481Z,18.80
2019-04-25T16:11:40.794Z,18.80
2019-04-25T16:14:11.047Z,18.70
2019-04-25T16:16:41.300Z,18.70
2019-04-25T16:19:11.542Z,18.60
2019-04-25T16:21:42.211Z,18.50
2019-04-25T16:24:12.602Z,18.40
2019-04-25T16:26:44.446Z,18.20
2019-04-25T16:29:14.593Z,18.10
2019-04-25T16:31:47.302Z,18.10
2019-04-25T16:34:18.602Z,18.00
2019-04-25T16:36:48.892Z,18.00
2019-04-25T16:39:22.805Z,17.80
2019-04-25T16:41:53.014Z,17.80
2019-04-25T16:44:23.188Z,17.70
2019-04-25T16:46:53.468Z,17.70
2019-04-25T16:49:23.735Z,17.80
2019-04-25T16:51:54.003Z,17.80
2019-04-25T16:54:25.252Z,17.80
2019-04-25T16:56:55.450Z,18.00
2019-04-25T16:59:25.666Z,18.10
2019-04-25T17:01:55.891Z,18.00
2019-04-25T17:04:26.118Z,17.80
2019-04-25T17:06:56.353Z,17.70
2019-04-25T17:09:26.577Z,17.60
2019-04-25T17:11:56.975Z,17.50
2019-04-25T17:14:46.220Z,17.40
2019-04-25T17:17:40.534Z,17.40
2019-04-25T17:20:20.958Z,17.30
2019-04-25T17:22:51.380Z,17.40
2019-04-25T17:25:25.512Z,17.50
2019-04-25T17:27:55.757Z,17.40
2019-04-25T17:30:28.774Z,17.40
2019-04-25T17:33:17.876Z,17.40
2019-04-25T17:36:10.015Z,17.40
2019-04-25T17:38:46.979Z,17.30
2019-04-25T17:41:17.247Z,17.20
2019-04-25T17:43:47.465Z,17.20
2019-04-25T17:46:19.396Z,17.10
2019-04-25T17:48:49.605Z,17.10
2019-04-25T17:51:19.889Z,17.00
2019-04-25T17:53:50.146Z,17.00
2019-04-25T17:56:21.203Z,17.00
2019-04-25T17:58:51.430Z,17.00
2019-04-25T18:01:25.291Z,17.00
2019-04-25T18:03:55.642Z,16.90
2019-04-25T18:06:25.928Z,16.90
2019-04-25T18:09:04.186Z,16.80
2019-04-25T18:12:00.074Z,16.70
2019-04-25T18:14:31.210Z,16.70
2019-04-25T18:17:09.510Z,16.60
2019-04-25T18:19:49.705Z,16.60
2019-04-25T18:22:52.811Z,16.50
2019-04-25T18:25:43.251Z,16.40
2019-04-25T18:28:35.507Z,16.30
2019-04-25T18:31:06.918Z,16.20
2019-04-25T18:33:37.452Z,16.10
2019-04-25T18:36:29.448Z,16.00
2019-04-25T18:39:09.966Z,15.90
2019-04-25T18:41:57.950Z,15.90
2019-04-25T18:44:28.216Z,15.80
2019-04-25T18:46:58.533Z,15.80
2019-04-25T18:49:28.638Z,15.80
2019-04-25T18:52:04.273Z,15.80
2019-04-25T18:54:59.841Z,15.90
2019-04-25T18:57:49.964Z,15.90
2019-04-25T19:00:37.838Z,15.90
2019-04-25T19:03:27.067Z,15.90
2019-04-25T19:06:00.408Z,16.00
2019-04-25T19:08:30.569Z,16.00
2019-04-25T19:11:00.898Z,16.00
2019-04-25T19:13:31.299Z,16.00
2019-04-25T19:16:01.370Z,16.00
2019-04-25T19:18:31.543Z,16.00
2019-04-25T19:21:01.770Z,16.00
2019-04-25T19:23:32.114Z,16.00
2019-04-25T19:26:02.206Z,15.90
2019-04-25T19:28:32.392Z,15.90
2019-04-25T19:31:08.833Z,15.90
2019-04-25T19:33:48.838Z,15.80
2019-04-25T19:36:25.409Z,15.80
2019-04-25T19:39:01.997Z,15.80
2019-04-25T19:41:45.023Z,15.80
2019-04-25T19:44:26.608Z,15.70
2019-04-25T19:47:03.468Z,15.70
2019-04-25T19:49:40.633Z,15.70
2019-04-25T19:52:18.189Z,15.70
2019-04-25T19:54:54.715Z,15.70
2019-04-25T19:57:30.987Z,15.70
2019-04-25T20:00:09.605Z,15.60
2019-04-25T20:03:02.144Z,15.60
2019-04-25T20:05:52.434Z,15.60
2019-04-25T20:08:50.751Z,15.50
2019-04-25T20:11:35.439Z,15.50
2019-04-25T20:14:12.089Z,15.50
2019-04-25T20:16:51.858Z,15.40
2019-04-25T20:19:31.429Z,15.40
2019-04-25T20:22:01.678Z,15.40
2019-04-25T20:24:31.885Z,15.40
2019-04-25T20:27:02.196Z,15.30
2019-04-25T20:29:32.419Z,15.30
2019-04-25T20:32:02.553Z,15.40
2019-04-25T20:34:32.888Z,15.40
2019-04-25T20:37:03.561Z,15.30
2019-04-25T20:39:33.771Z,15.40
2019-04-25T20:42:04.013Z,15.30
2019-04-25T20:44:36.455Z,15.30
2019-04-25T20:47:05.969Z,15.30
2019-04-25T20:49:36.182Z,15.30
2019-04-25T20:52:06.582Z,15.20
2019-04-25T20:54:36.678Z,15.20
2019-04-25T20:57:06.972Z,15.20
2019-04-25T20:59:37.229Z,15.20
2019-04-25T21:02:09.237Z,15.20
2019-04-25T21:04:43.320Z,15.20
2019-04-25T21:07:13.643Z,15.20
2019-04-25T21:09:43.873Z,15.20
2019-04-25T21:12:14.197Z,15.30
2019-04-25T21:14:53.113Z,15.30
2019-04-25T21:17:27.125Z,15.30
2019-04-25T21:19:58.455Z,15.30
2019-04-25T21:22:28.725Z,15.20
2019-04-25T21:24:59.020Z,15.20
2019-04-25T21:27:29.441Z,15.20
2019-04-25T21:29:59.797Z,15.20
2019-04-25T21:32:31.831Z,15.20
2019-04-25T21:35:02.310Z,15.20
2019-04-25T21:37:32.509Z,15.10
2019-04-25T21:40:13.554Z,15.10
2019-04-25T21:42:53.145Z,15.10
2019-04-25T21:45:25.141Z,15.00
2019-04-25T21:47:55.831Z,14.90
2019-04-25T21:50:27.432Z,14.90
2019-04-25T21:52:57.905Z,14.80
2019-04-25T21:55:36.900Z,14.80
2019-04-25T21:58:13.896Z,14.70
2019-04-25T22:01:04.486Z,14.70
2019-04-25T22:03:39.094Z,14.60
2019-04-25T22:06:09.627Z,14.50
2019-04-25T22:08:39.952Z,14.50
2019-04-25T22:11:10.309Z,14.40
2019-04-25T22:13:40.850Z,14.40
2019-04-25T22:16:11.381Z,14.30
2019-04-25T22:18:41.959Z,14.30
2019-04-25T22:21:12.747Z,14.20
2019-04-25T22:23:43.170Z,14.20
2019-04-25T22:26:13.497Z,14.20
2019-04-25T22:28:43.876Z,14.20
2019-04-25T22:31:22.078Z,14.10
2019-04-25T22:34:09.810Z,14.10
2019-04-25T22:36:41.200Z,14.10
2019-04-25T22:39:11.699Z,14.00
2019-04-25T22:41:46.481Z,14.00
2019-04-25T22:44:18.212Z,13.90
2019-04-25T22:46:48.779Z,13.90
2019-04-25T22:49:18.955Z,13.80
2019-04-25T22:51:49.123Z,13.80
2019-04-25T22:54:19.618Z,13.80
2019-04-25T22:56:49.820Z,13.80
2019-04-25T22:59:20.315Z,13.70
2019-04-25T23:02:15.626Z,13.70
2019-04-25T23:05:12.109Z,13.70
2019-04-25T23:07:38.369Z,13.60
2019-04-25T23:10:09.087Z,13.60
2019-04-25T23:12:40.261Z,13.60
2019-04-25T23:15:11.010Z,13.60
2019-04-25T23:17:41.249Z,13.60
2019-04-25T23:20:11.954Z,13.60
2019-04-25T23:22:42.263Z,13.60
2019-04-25T23:25:14.341Z,13.60
2019-04-25T23:28:06.152Z,13.60
2019-04-25T23:30:55.847Z,13.60
2019-04-25T23:33:26.121Z,13.60
2019-04-25T23:35:56.478Z,13.60
2019-04-25T23:38:26.641Z,13.60
2019-04-25T23:40:56.936Z,13.60
2019-04-25T23:43:27.363Z,13.50
2019-04-25T23:45:57.591Z,13.50
2019-04-25T23:48:28.165Z,13.50
2019-04-25T23:50:58.475Z,13.50
2019-04-25T23:53:28.708Z,13.50
2019-04-25T23:55:59.007Z,13.50
2019-04-25T23:58:29.175Z,13.60
